Time;durP1;ratioP1;P1;durP2;ratioP2;P2;SDS_P1;SDS_P2;PMS_P1;PMS_P2;Temp;Humidity;BMP_temperature;BMP_pressure;BME280_temperature;BME280_humidity;BME280_pressure;Samples;Min_cycle;Max_cycle;Signal;HPM_P1;HPM_P2
2021/06/02 00:02:19;;;;;;;9.35;5.10;;;;;;;15.49;52.00;99510.58;1743111;81;21568;-61
2021/06/02 00:04:48;;;;;;;12.10;5.55;;;;;;;15.46;52.03;99509.63;1743887;82;20907;-60
2021/06/02 00:07:21;;;;;;;19.37;4.72;;;;;;;15.48;52.22;99509.45;1742587;81;20880;-60
2021/06/02 00:09:47;;;;;;;8.15;3.85;;;;;;;15.51;52.23;99505.03;1742694;82;21126;-60
2021/06/02 00:12:15;;;;;;;10.32;4.50;;;;;;;15.51;52.25;99504.52;1742421;81;20976;-62
2021/06/02 00:14:42;;;;;;;7.45;5.22;;;;;;;15.53;52.31;99510.50;1740390;81;21576;-60
2021/06/02 00:17:11;;;;;;;13.90;5.42;;;;;;;15.55;52.54;99510.29;1738309;81;20971;-60
2021/06/02 00:19:37;;;;;;;8.33;4.65;;;;;;;15.56;52.67;99498.55;1743045;82;20852;-61
2021/06/02 00:22:06;;;;;;;8.58;4.33;;;;;;;15.57;52.71;99502.36;1742667;81;21738;-61
2021/06/02 00:24:33;;;;;;;11.20;3.98;;;;;;;15.58;52.94;99504.02;1742779;82;20925;-61
2021/06/02 00:27:02;;;;;;;8.40;3.77;;;;;;;15.56;52.91;99498.55;1741179;81;21019;-61
2021/06/02 00:29:32;;;;;;;9.85;4.30;;;;;;;15.54;52.92;99505.44;1740248;82;21770;-60
2021/06/02 00:31:59;;;;;;;9.58;4.35;;;;;;;15.49;53.04;99501.19;1737050;82;20939;-61
2021/06/02 00:34:26;;;;;;;11.33;4.50;;;;;;;15.50;53.08;99499.34;1742328;82;21055;-61
2021/06/02 00:36:53;;;;;;;10.85;4.17;;;;;;;15.50;52.96;99499.34;1731623;82;21004;-61
2021/06/02 00:39:19;;;;;;;9.35;4.37;;;;;;;15.50;53.04;99498.00;1742401;81;20969;-60
2021/06/02 00:41:47;;;;;;;11.08;4.95;;;;;;;15.48;53.18;99502.75;1742926;81;21521;-61
2021/06/02 00:44:15;;;;;;;9.50;4.78;;;;;;;15.49;53.08;99505.22;1708400;84;21472;-60
2021/06/02 00:46:43;;;;;;;7.50;4.20;;;;;;;15.49;53.12;99493.16;1710808;82;21795;-60
2021/06/02 00:49:24;;;;;;;7.78;4.25;;;;;;;15.50;53.33;99505.54;1708240;84;21584;-60
2021/06/02 00:52:06;;;;;;;11.28;4.47;;;;;;;15.46;53.39;99502.93;1708235;84;20986;-61
2021/06/02 00:54:36;;;;;;;7.45;3.83;;;;;;;15.47;53.41;99501.08;1708132;84;21039;-60
2021/06/02 00:57:17;;;;;;;7.60;4.30;;;;;;;15.47;53.58;99501.08;1728492;82;21513;-60
2021/06/02 01:00:07;;;;;;;8.70;3.90;;;;;;;15.49;53.63;99499.85;1687627;84;21174;-60
2021/06/02 01:02:35;;;;;;;11.50;4.03;;;;;;;15.52;53.53;99507.50;1709694;82;21489;-60
2021/06/02 01:05:02;;;;;;;8.88;4.25;;;;;;;15.48;53.35;99504.09;1691355;84;21500;-60
2021/06/02 01:07:28;;;;;;;4.67;3.85;;;;;;;15.40;53.31;99499.20;1710606;82;21029;-61
2021/06/02 01:09:56;;;;;;;7.58;5.17;;;;;;;15.36;53.32;99497.92;1708305;84;20949;-61
2021/06/02 01:12:27;;;;;;;5.87;3.72;;;;;;;15.33;53.40;99503.67;1708253;84;21134;-61
2021/06/02 01:14:55;;;;;;;8.18;4.28;;;;;;;15.35;53.48;99494.95;1708098;84;20982;-60
2021/06/02 01:17:28;;;;;;;9.85;4.72;;;;;;;15.38;53.60;99497.20;1716718;82;20978;-60
2021/06/02 01:19:58;;;;;;;7.83;5.00;;;;;;;15.36;53.60;99499.77;1715963;83;21493;-61
2021/06/02 01:22:33;;;;;;;7.65;4.37;;;;;;;15.28;53.55;99495.92;1715914;83;20993;-60
2021/06/02 01:24:57;;;;;;;6.25;4.72;;;;;;;15.24;53.60;99494.68;1715675;83;21326;-61
2021/06/02 01:27:23;;;;;;;9.25;4.35;;;;;;;15.22;53.76;99490.87;1715673;83;20994;-61
2021/06/02 01:29:51;;;;;;;8.30;4.30;;;;;;;15.21;53.76;99496.41;1715782;83;20994;-60
2021/06/02 01:33:03;;;;;;;7.45;4.30;;;;;;;15.23;53.81;99495.70;1695588;83;20943;-60
2021/06/02 01:35:56;;;;;;;12.35;4.85;;;;;;;15.24;53.75;99497.36;1715894;82;20986;-60
2021/06/02 01:39:09;;;;;;;12.78;5.42;;;;;;;15.19;53.78;99496.63;1727115;82;21078;-60
2021/06/02 01:42:14;;;;;;;6.10;4.28;;;;;;;15.17;53.98;99492.49;1740031;81;20908;-61
2021/06/02 01:45:25;;;;;;;5.33;4.40;;;;;;;15.05;54.23;99499.42;1750296;82;20987;-60
2021/06/02 01:48:11;;;;;;;6.67;4.60;;;;;;;15.00;54.48;99497.34;1751096;81;20990;-61
2021/06/02 01:51:02;;;;;;;;;;;;;;;15.00;54.51;99497.85;1753081;82;21529;-62
2021/06/02 01:53:49;;;;;;;5.10;3.90;;;;;;;14.98;54.67;99501.25;1706294;81;21354;-60
2021/06/02 01:57:06;;;;;;;7.00;4.58;;;;;;;15.01;54.69;99496.33;1750288;82;20892;-61
2021/06/02 01:59:59;;;;;;;5.40;4.03;;;;;;;14.99;54.73;99497.56;1748529;82;20987;-60
2021/06/02 02:03:01;;;;;;;8.40;4.58;;;;;;;14.98;54.77;99495.38;1709189;81;20904;-60
2021/06/02 02:06:02;;;;;;;11.38;4.45;;;;;;;14.98;54.75;99492.70;1751102;82;20951;-61
2021/06/02 02:09:02;;;;;;;7.05;4.45;;;;;;;14.98;54.53;99490.53;1746745;81;21173;-61
2021/06/02 02:11:40;;;;;;;4.85;3.65;;;;;;;14.87;54.63;99493.77;1749257;82;21367;-62
2021/06/02 02:14:24;;;;;;;9.13;4.15;;;;;;;14.79;54.71;99503.61;1750558;81;20868;-61
2021/06/02 02:17:04;;;;;;;6.37;3.90;;;;;;;14.75;55.02;99506.38;1746477;81;21557;-61
2021/06/02 02:20:23;;;;;;;11.95;4.25;;;;;;;14.74;55.09;99496.69;1690130;83;21021;-62
2021/06/02 02:23:23;;;;;;;6.72;3.77;;;;;;;14.70;55.15;99507.99;1693866;84;22603;-61
2021/06/02 02:26:25;;;;;;;5.42;3.80;;;;;;;14.65;55.28;99511.23;1694151;84;20907;-59
2021/06/02 02:28:56;;;;;;;8.20;3.77;;;;;;;14.66;55.51;99509.39;1701477;83;21023;-61
2021/06/02 02:31:47;;;;;;;4.67;3.45;;;;;;;14.64;55.42;99508.26;1674217;84;21127;-61
2021/06/02 02:34:46;;;;;;;4.97;3.47;;;;;;;14.66;55.49;99505.37;1652964;84;21106;-61
2021/06/02 02:37:45;;;;;;;7.00;3.30;;;;;;;14.66;55.36;99508.05;1693412;84;21820;-60
2021/06/02 02:40:35;;;;;;;4.30;3.90;;;;;;;14.64;55.23;99509.59;1699843;83;21077;-59
2021/06/02 02:43:15;;;;;;;4.58;3.77;;;;;;;14.62;55.06;99514.33;1674179;84;21077;-63
2021/06/02 02:46:06;;;;;;;8.50;3.35;;;;;;;14.52;55.06;99511.14;1686080;84;21089;-60
2021/06/02 02:48:41;;;;;;;4.22;3.75;;;;;;;14.45;55.14;99506.25;1705738;83;20930;-61
2021/06/02 02:51:34;;;;;;;3.75;3.37;;;;;;;14.40;55.20;99510.53;1693705;84;21309;-62
2021/06/02 02:54:10;;;;;;;4.92;4.42;;;;;;;14.34;55.33;99513.46;1695105;83;20965;-60
2021/06/02 02:56:56;;;;;;;4.33;3.92;;;;;;;14.39;55.32;99511.56;1707679;83;21012;-60
2021/06/02 02:59:29;;;;;;;4.55;4.05;;;;;;;14.42;55.33;99512.49;1717632;83;20969;-60
2021/06/02 03:02:05;;;;;;;4.50;3.35;;;;;;;14.45;55.38;99514.28;1676577;83;21020;-60
2021/06/02 03:04:37;;;;;;;4.37;3.25;;;;;;;14.51;55.68;99516.70;1684160;83;21068;-59
2021/06/02 03:07:04;;;;;;;6.20;3.67;;;;;;;14.60;55.64;99518.22;1676852;83;21520;-59
2021/06/02 03:09:40;;;;;;;5.83;3.47;;;;;;;14.61;55.78;99512.66;1715077;83;20998;-59
2021/06/02 03:12:27;;;;;;;6.20;3.98;;;;;;;14.62;55.67;99512.16;1696450;83;20999;-59
2021/06/02 03:14:59;;;;;;;7.20;3.83;;;;;;;14.61;55.54;99510.48;1686804;83;20914;-59
2021/06/02 03:17:44;;;;;;;5.83;4.17;;;;;;;14.59;55.41;99516.05;1686248;83;21132;-60
2021/06/02 03:20:21;;;;;;;4.85;3.98;;;;;;;14.55;55.40;99525.47;1684652;83;21064;-61
2021/06/02 03:23:05;;;;;;;4.97;3.80;;;;;;;14.58;55.46;99529.11;1677376;83;21053;-61
2021/06/02 03:25:52;;;;;;;7.53;4.30;;;;;;;14.62;55.83;99529.05;1677915;83;21653;-61
2021/06/02 03:28:32;;;;;;;5.60;3.70;;;;;;;14.68;55.69;99530.92;1692582;83;21518;-60
2021/06/02 03:31:28;;;;;;;4.42;3.95;;;;;;;14.68;56.01;99537.63;1676325;83;21170;-60
2021/06/02 03:34:18;;;;;;;4.53;4.12;;;;;;;14.68;56.74;99533.61;1647673;87;20985;-60
2021/06/02 03:37:28;;;;;;;4.58;4.17;;;;;;;14.74;56.57;99532.83;1660180;85;21546;-60
2021/06/02 03:40:21;;;;;;;6.85;4.40;;;;;;;14.76;56.20;99528.10;1677012;83;20966;-60
2021/06/02 03:42:56;;;;;;;5.08;4.58;;;;;;;14.77;55.82;99525.75;1699908;83;21061;-60
2021/06/02 03:45:34;;;;;;;5.83;5.30;;;;;;;14.75;55.65;99527.80;1694155;84;21303;-61
2021/06/02 03:48:41;;;;;;;6.75;6.05;;;;;;;14.76;55.46;99536.64;1707769;83;21006;-62
2021/06/02 03:51:20;;;;;;;7.03;5.15;;;;;;;14.73;55.49;99536.52;1693589;83;20993;-60
2021/06/02 03:54:11;;;;;;;5.10;4.53;;;;;;;14.73;55.47;99539.20;1693548;84;21018;-61
2021/06/02 03:57:09;;;;;;;9.38;4.20;;;;;;;14.74;55.75;99544.05;1685613;83;21021;-60
2021/06/02 04:00:11;;;;;;;6.28;4.65;;;;;;;14.82;56.23;99543.40;1693324;84;21163;-59
2021/06/02 04:03:05;;;;;;;4.17;3.77;;;;;;;14.89;56.08;99541.28;1689263;84;20969;-60
2021/06/02 04:05:43;;;;;;;4.55;4.03;;;;;;;14.95;55.97;99546.67;1692867;84;21133;-60
2021/06/02 04:08:36;;;;;;;6.87;4.40;;;;;;;14.98;55.51;99546.28;1683319;84;20998;-61
2021/06/02 04:11:39;;;;;;;7.60;6.90;;;;;;;14.99;55.18;99548.45;1691195;84;21002;-61
2021/06/02 04:14:07;;;;;;;6.40;4.47;;;;;;;15.02;55.06;99552.05;1693961;84;21173;-61
2021/06/02 04:16:38;;;;;;;4.12;3.67;;;;;;;15.01;55.06;99549.91;1691996;84;20978;-60
2021/06/02 04:19:15;;;;;;;5.87;3.37;;;;;;;14.97;55.27;99549.97;1678546;84;21552;-61
2021/06/02 04:21:46;;;;;;;3.83;3.52;;;;;;;15.01;55.25;99550.41;1672000;85;21042;-61
2021/06/02 04:24:14;;;;;;;4.15;3.15;;;;;;;15.03;55.26;99558.57;1663173;85;21007;-60
2021/06/02 04:26:41;;;;;;;4.58;3.60;;;;;;;15.09;55.08;99552.94;1669132;85;21802;-61
2021/06/02 04:29:10;;;;;;;4.00;3.20;;;;;;;15.18;54.94;99557.94;1677938;85;21051;-60
2021/06/02 04:31:55;;;;;;;3.22;2.67;;;;;;;15.27;54.79;99563.97;1666090;85;20987;-61
2021/06/02 04:34:24;;;;;;;4.03;3.12;;;;;;;15.35;54.69;99557.94;1673243;85;21053;-61
2021/06/02 04:36:53;;;;;;;3.83;3.22;;;;;;;15.48;54.55;99565.75;1676223;85;20971;-60
2021/06/02 04:39:21;;;;;;;4.97;4.40;;;;;;;15.58;54.10;99564.35;1668532;85;21588;-61
2021/06/02 04:41:48;;;;;;;4.10;3.52;;;;;;;15.69;53.94;99559.77;1677755;85;21619;-59
2021/06/02 04:44:15;;;;;;;3.75;3.17;;;;;;;15.88;53.65;99565.69;1678161;85;21028;-59
2021/06/02 04:46:44;;;;;;;3.50;3.10;;;;;;;16.16;53.13;99567.41;1666903;85;20987;-57
2021/06/02 04:49:14;;;;;;;4.53;3.58;;;;;;;16.36;52.70;99566.91;1649360;85;20926;-58
2021/06/02 04:52:01;;;;;;;3.87;3.20;;;;;;;16.61;52.10;99565.30;1670617;85;21524;-60
2021/06/02 04:54:54;;;;;;;5.15;3.55;;;;;;;16.88;51.22;99568.29;1670057;84;21097;-56
2021/06/02 04:57:45;;;;;;;5.50;3.50;;;;;;;17.17;50.33;99571.03;1665437;84;20938;-63
2021/06/02 05:00:54;;;;;;;6.72;5.25;;;;;;;17.50;48.97;99562.85;1669935;84;21035;-57
2021/06/02 05:03:55;;;;;;;6.33;3.70;;;;;;;17.63;48.30;99560.14;1656449;84;21175;-60
2021/06/02 05:06:53;;;;;;;5.72;3.95;;;;;;;17.93;47.64;99569.33;1688279;84;21037;-60
2021/06/02 05:09:47;;;;;;;;;;;;;;;18.35;46.62;99565.94;1666401;84;21477;-60
2021/06/02 05:12:45;;;;;;;4.28;3.17;;;;;;;18.74;45.44;99565.38;1683204;84;20454;-59
2021/06/02 05:15:42;;;;;;;7.55;3.80;;;;;;;18.97;45.11;99566.92;1665950;84;20927;-60
2021/06/02 05:18:50;;;;;;;11.10;3.42;;;;;;;19.08;44.74;99570.23;1677863;84;20931;-60
2021/06/02 05:22:05;;;;;;;7.03;3.55;;;;;;;19.30;44.48;99571.44;1657602;84;21029;-57
2021/06/02 05:24:50;;;;;;;5.50;3.77;;;;;;;19.75;43.76;99571.16;1658439;84;21545;-58
2021/06/02 05:27:58;;;;;;;8.00;3.72;;;;;;;19.94;43.13;99564.16;1655158;84;21007;-58
2021/06/02 05:30:53;;;;;;;6.78;2.90;;;;;;;20.17;42.36;99572.88;1657300;84;21010;-59
2021/06/02 05:33:54;;;;;;;5.20;3.02;;;;;;;20.52;42.03;99566.25;1674647;84;21074;-58
2021/06/02 05:36:55;;;;;;;6.53;3.15;;;;;;;20.94;41.05;99561.88;1678203;84;21157;-59
2021/06/02 05:40:01;;;;;;;6.33;2.55;;;;;;;21.25;39.94;99563.93;1681226;84;21006;-58
2021/06/02 05:43:25;;;;;;;4.10;2.07;;;;;;;21.40;39.37;99569.70;1676587;84;21504;-60
2021/06/02 05:46:18;;;;;;;5.87;2.77;;;;;;;21.51;38.83;99571.02;1687836;84;20983;-62
2021/06/02 05:49:01;;;;;;;4.60;2.33;;;;;;;21.57;38.47;99571.95;1673245;84;21102;-66
2021/06/02 05:52:24;;;;;;;5.20;2.30;;;;;;;21.55;38.18;99579.48;1689252;84;21155;-62
2021/06/02 05:55:08;;;;;;;3.45;2.20;;;;;;;21.72;37.97;99574.96;1654317;84;21030;-62
2021/06/02 05:58:15;;;;;;;12.05;2.70;;;;;;;22.11;37.83;99570.08;1656859;84;21001;-65
2021/06/02 06:01:30;;;;;;;9.48;2.37;;;;;;;22.70;37.17;99559.77;1666792;84;21026;-66
2021/06/02 06:04:46;;;;;;;6.83;2.72;;;;;;;23.33;35.91;99556.64;1651719;84;21047;-62
2021/06/02 06:07:38;;;;;;;6.37;2.50;;;;;;;23.83;35.16;99554.56;1594534;87;21199;-64
2021/06/02 06:10:50;;;;;;;3.65;2.17;;;;;;;24.11;34.58;99556.28;1672316;84;21551;-64
2021/06/02 06:14:07;;;;;;;3.75;2.40;;;;;;;23.86;33.85;99557.31;1661084;84;21084;-66
2021/06/02 06:17:30;;;;;;;3.20;1.95;;;;;;;23.67;33.14;99560.09;1662695;84;21042;-65
2021/06/02 06:20:31;;;;;;;3.00;1.90;;;;;;;23.67;33.14;99560.09;1659448;84;21022;-64
2021/06/02 06:23:18;;;;;;;6.75;2.60;;;;;;;23.70;33.65;99556.88;1656338;84;21164;-65
2021/06/02 06:26:16;;;;;;;6.17;2.58;;;;;;;23.81;33.61;99554.02;1652340;84;21449;-63
2021/06/02 06:28:58;;;;;;;2.77;2.08;;;;;;;23.91;33.35;99556.84;1650403;84;20943;-62
2021/06/02 06:31:30;;;;;;;9.05;2.67;;;;;;;24.03;33.21;99558.59;1656966;84;20950;-65
2021/06/02 06:33:57;;;;;;;8.35;2.70;;;;;;;24.13;33.12;99554.13;1655287;84;21074;-67
2021/06/02 06:36:25;;;;;;;5.97;2.10;;;;;;;24.15;32.46;99560.12;1651622;84;21139;-65
2021/06/02 06:39:23;;;;;;;6.33;2.45;;;;;;;24.11;32.33;99561.72;1657807;84;21100;-67
2021/06/02 06:41:51;;;;;;;9.28;2.75;;;;;;;24.20;32.25;99558.80;1653543;84;20990;-64
2021/06/02 06:44:18;;;;;;;2.85;2.10;;;;;;;24.34;32.06;99559.22;1661593;84;20959;-64
2021/06/02 06:46:48;;;;;;;8.33;2.72;;;;;;;24.54;31.80;99552.06;1654737;84;21103;-64
2021/06/02 06:49:15;;;;;;;5.30;1.98;;;;;;;24.82;31.60;99541.98;1656798;84;21150;-64
2021/06/02 06:51:42;;;;;;;5.40;2.52;;;;;;;25.05;30.75;99542.42;1652224;84;21563;-63
2021/06/02 06:54:12;;;;;;;4.25;1.95;;;;;;;25.31;30.30;99547.47;1652185;84;21022;-59
2021/06/02 06:56:39;;;;;;;4.80;2.15;;;;;;;25.41;28.95;99548.05;1657665;84;21054;-67
2021/06/02 06:59:06;;;;;;;6.08;2.20;;;;;;;25.41;29.81;99547.52;1660184;84;21022;-62
2021/06/02 07:01:37;;;;;;;2.45;2.02;;;;;;;25.57;29.33;99544.35;1657515;84;22391;-60
2021/06/02 07:04:03;;;;;;;3.30;2.08;;;;;;;25.62;29.26;99543.84;1654601;84;20930;-58
2021/06/02 07:06:30;;;;;;;4.70;1.70;;;;;;;25.83;29.11;99535.19;1652993;84;20970;-59
2021/06/02 07:08:57;;;;;;;4.10;1.98;;;;;;;26.14;29.20;99527.92;1651864;84;21043;-64
2021/06/02 07:11:23;;;;;;;7.00;1.85;;;;;;;26.47;28.42;99527.41;1652413;84;21101;-60
2021/06/02 07:13:51;;;;;;;2.80;1.60;;;;;;;26.81;27.15;99533.15;1657593;84;21076;-65
2021/06/02 07:16:18;;;;;;;3.60;1.87;;;;;;;27.14;27.34;99529.02;1662758;84;21005;-60
2021/06/02 07:18:45;;;;;;;3.45;1.55;;;;;;;27.43;26.00;99532.76;1652297;84;21137;-61
2021/06/02 07:21:13;;;;;;;5.30;1.47;;;;;;;27.29;25.50;99528.97;1656903;84;21611;-61
2021/06/02 07:23:40;;;;;;;3.37;1.37;;;;;;;27.53;25.80;99529.44;1653760;84;21070;-67
2021/06/02 07:26:07;;;;;;;6.20;1.50;;;;;;;27.81;24.70;99533.43;1667219;84;21205;-58
2021/06/02 07:28:39;;;;;;;3.22;1.50;;;;;;;28.08;24.92;99527.00;1663586;84;21058;-58
2021/06/02 07:31:07;;;;;;;4.40;1.60;;;;;;;28.45;23.27;99520.99;1657536;84;21030;-58
2021/06/02 07:33:33;;;;;;;6.55;1.55;;;;;;;28.23;23.02;99515.70;1670793;85;21047;-58
2021/06/02 07:36:01;;;;;;;5.17;1.42;;;;;;;28.27;23.64;99517.58;1677796;85;21026;-59
2021/06/02 07:38:28;;;;;;;9.48;1.80;;;;;;;28.64;23.24;99512.94;1681149;84;21112;-61
2021/06/02 07:40:54;;;;;;;4.42;1.17;;;;;;;28.93;22.68;99512.94;1677794;85;21123;-58
2021/06/02 07:43:21;;;;;;;1.80;1.40;;;;;;;28.82;22.12;99519.61;1680366;84;21070;-59
2021/06/02 07:45:47;;;;;;;2.98;1.40;;;;;;;28.32;21.64;99516.17;1678148;85;20947;-59
2021/06/02 07:48:14;;;;;;;6.03;1.40;;;;;;;27.77;22.15;99520.59;1677882;85;20960;-59
2021/06/02 07:50:43;;;;;;;2.47;1.52;;;;;;;27.29;22.79;99516.68;1677769;85;21116;-59
2021/06/02 07:53:09;;;;;;;3.02;1.42;;;;;;;27.26;23.70;99518.59;1677656;85;21017;-60
2021/06/02 07:55:37;;;;;;;3.58;1.60;;;;;;;27.45;23.95;99519.66;1677633;85;21624;-59
2021/06/02 07:58:04;;;;;;;5.25;1.35;;;;;;;27.79;24.03;99514.31;1677761;85;21053;-63
2021/06/02 08:00:30;;;;;;;6.35;1.22;;;;;;;28.03;23.43;99511.17;1677882;85;21018;-59
2021/06/02 08:02:58;;;;;;;3.02;1.00;;;;;;;27.95;23.25;99511.19;1677767;85;21079;-57
2021/06/02 08:05:25;;;;;;;10.90;1.10;;;;;;;27.94;22.41;99513.67;1677712;85;21595;-58
2021/06/02 08:07:51;;;;;;;3.25;0.93;;;;;;;27.55;21.38;99518.25;1677925;85;21091;-58
2021/06/02 08:10:18;;;;;;;3.08;1.10;;;;;;;27.06;21.68;99513.20;1677780;85;21549;-58
2021/06/02 08:12:45;;;;;;;2.22;1.00;;;;;;;26.82;22.70;99517.89;1678111;85;20931;-58
2021/06/02 08:15:14;;;;;;;1.65;0.95;;;;;;;26.95;21.74;99509.67;1677977;85;22315;-58
2021/06/02 08:17:41;;;;;;;3.55;1.20;;;;;;;26.99;22.77;99513.47;1677839;85;20967;-58
2021/06/02 08:20:10;;;;;;;2.87;1.00;;;;;;;27.24;22.21;99505.77;1677800;85;21085;-61
2021/06/02 08:22:38;;;;;;;8.70;1.10;;;;;;;27.07;22.80;99514.27;1678001;85;21533;-58
2021/06/02 08:25:08;;;;;;;2.27;1.50;;;;;;;26.41;23.39;99507.23;1677908;85;21482;-59
2021/06/02 08:27:35;;;;;;;3.47;1.20;;;;;;;26.05;23.96;99510.41;1677937;85;21162;-58
2021/06/02 08:30:04;;;;;;;3.35;1.67;;;;;;;25.81;24.55;99518.83;1630300;85;21576;-58
2021/06/02 08:32:31;;;;;;;4.67;1.62;;;;;;;25.67;25.13;99523.95;1677921;85;20967;-60
2021/06/02 08:34:57;;;;;;;2.20;1.30;;;;;;;25.53;25.53;99514.09;1677915;85;20987;-57
2021/06/02 08:37:24;;;;;;;1.85;1.40;;;;;;;25.71;25.78;99510.06;1677722;85;21043;-59
2021/06/02 08:39:50;;;;;;;4.47;1.47;;;;;;;26.21;25.25;99499.84;1677910;85;21105;-61
2021/06/02 08:42:18;;;;;;;6.95;1.75;;;;;;;26.53;24.88;99499.59;1677867;85;21010;-58
2021/06/02 08:44:45;;;;;;;5.03;1.80;;;;;;;26.96;24.51;99490.81;1677908;85;21030;-58
2021/06/02 08:47:12;;;;;;;3.98;1.20;;;;;;;27.38;24.52;99500.80;1677807;85;20979;-59
2021/06/02 08:49:38;;;;;;;2.80;1.37;;;;;;;27.59;23.36;99491.98;1678093;85;21556;-62
2021/06/02 08:52:07;;;;;;;1.92;1.45;;;;;;;27.34;23.21;99497.55;1677875;85;21143;-62
2021/06/02 08:54:35;;;;;;;3.25;1.45;;;;;;;27.04;24.08;99491.62;1677694;85;20971;-62
2021/06/02 08:57:07;;;;;;;5.97;2.00;;;;;;;27.25;24.13;99496.47;1677803;85;20986;-57
2021/06/02 08:59:35;;;;;;;2.10;1.52;;;;;;;27.48;23.96;99492.58;1677782;85;21540;-58
2021/06/02 09:02:04;;;;;;;2.15;1.30;;;;;;;27.89;23.69;99493.20;1677811;85;21565;-58
2021/06/02 09:04:33;;;;;;;2.42;1.10;;;;;;;28.26;22.61;99491.89;1677746;85;21161;-59
2021/06/02 09:06:59;;;;;;;4.50;1.40;;;;;;;28.63;22.96;99478.45;1677829;85;21599;-58
2021/06/02 09:09:26;;;;;;;3.92;1.20;;;;;;;28.87;22.24;99479.86;1654540;85;21100;-58
2021/06/02 09:11:54;;;;;;;2.70;0.98;;;;;;;28.91;22.00;99477.64;1677830;85;21019;-58
2021/06/02 09:14:25;;;;;;;5.65;1.37;;;;;;;28.84;21.68;99488.10;1677751;85;20998;-57
2021/06/02 09:17:05;;;;;;;13.93;1.47;;;;;;;28.50;22.12;99479.09;1677752;85;21760;-61
2021/06/02 09:19:44;;;;;;;4.65;1.17;;;;;;;28.17;22.02;99497.14;1677580;85;21474;-58
2021/06/02 09:22:16;;;;;;;3.30;1.37;;;;;;;27.61;22.33;99495.83;1677273;85;21046;-60
2021/06/02 09:24:56;;;;;;;4.08;1.55;;;;;;;27.21;22.33;99503.59;1676761;85;20982;-58
2021/06/02 09:27:49;;;;;;;5.05;1.40;;;;;;;27.06;22.76;99499.55;1677336;85;20951;-58
2021/06/02 09:30:22;;;;;;;2.47;1.30;;;;;;;27.16;23.07;99500.88;1675097;84;21117;-58
2021/06/02 09:32:56;;;;;;;10.03;1.65;;;;;;;27.24;22.98;99498.95;1661421;85;20931;-60
2021/06/02 09:35:24;;;;;;;4.20;1.40;;;;;;;27.05;22.70;99495.17;1677200;85;20975;-58
2021/06/02 09:37:57;;;;;;;2.98;1.37;;;;;;;26.68;23.13;99509.94;1651498;85;21019;-59
2021/06/02 09:40:33;;;;;;;5.85;2.05;;;;;;;26.46;23.51;99501.78;1677285;85;21011;-62
2021/06/02 09:42:59;;;;;;;2.40;1.55;;;;;;;26.39;23.95;99496.58;1677407;85;21557;-60
2021/06/02 09:45:26;;;;;;;3.10;1.25;;;;;;;26.46;23.44;99498.51;1677578;85;20954;-58
2021/06/02 09:48:00;;;;;;;3.83;1.42;;;;;;;26.47;23.75;99502.86;1677211;85;21030;-57
2021/06/02 09:50:38;;;;;;;4.10;1.30;;;;;;;26.39;24.06;99492.48;1653631;85;20908;-59
2021/06/02 09:53:08;;;;;;;3.22;1.32;;;;;;;26.59;24.19;99491.68;1677266;85;21034;-59
2021/06/02 09:55:40;;;;;;;1.37;1.17;;;;;;;26.72;24.03;99502.03;1676820;85;21298;-59
2021/06/02 09:58:13;;;;;;;2.25;1.30;;;;;;;26.60;23.05;99506.40;1677197;85;21012;-59
2021/06/02 10:00:43;;;;;;;1.30;1.10;;;;;;;26.37;23.29;99494.67;1677438;85;20978;-61
2021/06/02 10:03:18;;;;;;;4.45;1.40;;;;;;;26.25;23.43;99496.86;1677330;85;20939;-59
2021/06/02 10:05:50;;;;;;;3.27;1.10;;;;;;;26.09;24.07;99493.81;1677550;85;20963;-58
2021/06/02 10:08:32;;;;;;;3.95;1.47;;;;;;;26.00;24.14;99502.23;1677336;85;21127;-58
2021/06/02 10:11:18;;;;;;;2.35;1.15;;;;;;;25.76;24.09;99500.00;1677168;85;20967;-59
2021/06/02 10:13:50;;;;;;;2.08;1.00;;;;;;;25.63;24.70;99505.13;1677346;85;21504;-57
2021/06/02 10:16:36;;;;;;;2.40;1.30;;;;;;;25.63;24.86;99496.95;1653595;85;21014;-57
2021/06/02 10:19:04;;;;;;;5.53;1.50;;;;;;;25.72;24.95;99491.28;1677230;85;20965;-58
2021/06/02 10:21:52;;;;;;;2.98;1.62;;;;;;;25.68;24.95;99490.98;1675289;85;21007;-58
2021/06/02 10:24:18;;;;;;;3.00;1.50;;;;;;;25.45;24.90;99502.31;1674433;85;20958;-58
2021/06/02 10:26:47;;;;;;;5.20;1.62;;;;;;;25.24;25.03;99496.50;1674278;85;21023;-59
2021/06/02 10:29:14;;;;;;;4.95;1.77;;;;;;;25.06;25.21;99497.78;1657130;85;21027;-58
2021/06/02 10:31:40;;;;;;;2.67;1.20;;;;;;;24.97;25.50;99498.55;1656026;85;21085;-58
2021/06/02 10:34:08;;;;;;;3.90;1.60;;;;;;;24.87;25.94;99495.77;1673813;85;21237;-59
2021/06/02 10:36:34;;;;;;;4.42;1.27;;;;;;;24.85;26.38;99503.35;1656914;85;20919;-58
2021/06/02 10:39:01;;;;;;;3.65;1.52;;;;;;;24.84;26.32;99498.47;1654514;84;21576;-58
2021/06/02 10:41:52;;;;;;;2.98;1.60;;;;;;;24.91;26.41;99505.03;1666588;85;20967;-59
2021/06/02 10:44:22;;;;;;;5.58;1.17;;;;;;;24.91;26.20;99509.94;1674388;85;21101;-59
2021/06/02 10:46:49;;;;;;;3.95;1.30;;;;;;;24.82;26.37;99501.18;1674358;85;21149;-61
2021/06/02 10:49:27;;;;;;;3.10;1.20;;;;;;;24.82;26.40;99496.53;1674476;85;20888;-61
2021/06/02 10:51:55;;;;;;;;;;;;;;;24.78;26.33;99504.95;1677126;85;20970;-59
2021/06/02 10:54:35;;;;;;;2.15;1.60;;;;;;;24.75;26.21;99509.52;1674284;85;20147;-58
2021/06/02 10:57:16;;;;;;;3.52;1.40;;;;;;;24.78;26.17;99510.90;1674499;85;21046;-58
2021/06/02 10:59:43;;;;;;;3.67;1.60;;;;;;;24.67;26.36;99510.00;1655528;85;21177;-61
2021/06/02 11:02:16;;;;;;;2.20;1.35;;;;;;;24.62;26.71;99502.34;1674168;85;21424;-59
2021/06/02 11:05:04;;;;;;;2.40;1.50;;;;;;;24.54;26.84;99507.19;1674232;85;21015;-59
2021/06/02 11:07:33;;;;;;;4.75;1.12;;;;;;;24.28;27.15;99509.95;1674708;85;21035;-57
2021/06/02 11:10:09;;;;;;;4.83;1.30;;;;;;;24.28;27.15;99509.95;1674256;85;21110;-58
2021/06/02 11:12:56;;;;;;;2.05;1.60;;;;;;;24.22;27.05;99511.00;1674222;85;21149;-58
2021/06/02 11:15:38;;;;;;;4.00;1.17;;;;;;;24.20;27.00;99507.16;1674262;85;20915;-58
2021/06/02 11:18:18;;;;;;;5.05;1.55;;;;;;;24.13;26.61;99507.92;1674226;85;20975;-58
2021/06/02 11:20:58;;;;;;;3.42;1.27;;;;;;;23.97;27.35;99510.17;1674791;85;21116;-59
2021/06/02 11:23:38;;;;;;;2.80;1.00;;;;;;;23.93;27.51;99503.63;1677975;85;20954;-58
2021/06/02 11:26:26;;;;;;;4.90;1.10;;;;;;;23.98;27.54;99502.31;1677740;85;20979;-59
2021/06/02 11:28:55;;;;;;;4.42;1.15;;;;;;;24.09;28.05;99499.98;1677777;85;20915;-58
2021/06/02 11:31:25;;;;;;;4.90;1.17;;;;;;;24.24;27.99;99509.66;1662602;85;20923;-57
2021/06/02 11:33:53;;;;;;;1.95;1.32;;;;;;;24.31;27.55;99511.63;1674777;85;20978;-60
2021/06/02 11:36:19;;;;;;;2.22;1.52;;;;;;;24.40;27.55;99514.13;1677838;85;21053;-58
2021/06/02 11:38:46;;;;;;;5.35;1.30;;;;;;;24.34;27.08;99508.39;1677894;85;21556;-60
2021/06/02 11:41:13;;;;;;;1.72;1.20;;;;;;;24.24;27.05;99515.64;1677965;85;21005;-58
2021/06/02 11:43:41;;;;;;;5.05;1.20;;;;;;;24.16;27.13;99516.92;1677833;85;21415;-58
2021/06/02 11:46:08;;;;;;;5.17;2.35;;;;;;;24.08;27.74;99514.67;1678036;85;21469;-58
2021/06/02 11:48:36;;;;;;;3.98;1.60;;;;;;;24.08;27.97;99521.97;1678145;85;21112;-58
2021/06/02 11:51:06;;;;;;;4.00;1.15;;;;;;;24.13;28.01;99513.36;1677827;85;21134;-61
2021/06/02 11:53:39;;;;;;;2.22;1.12;;;;;;;24.17;27.34;99513.67;1678030;85;21022;-59
2021/06/02 11:56:05;;;;;;;6.45;1.65;;;;;;;24.15;26.63;99512.55;1677720;85;20955;-58
2021/06/02 11:58:32;;;;;;;4.72;1.50;;;;;;;24.19;26.61;99506.91;1668070;85;20994;-59
2021/06/02 12:00:58;;;;;;;2.15;0.85;;;;;;;24.25;26.65;99505.85;1677772;85;21054;-63
2021/06/02 12:03:25;;;;;;;3.67;1.52;;;;;;;24.32;26.54;99503.77;1677851;85;21127;-61
2021/06/02 12:05:54;;;;;;;1.47;1.10;;;;;;;24.36;26.67;99506.23;1676246;85;20951;-58
2021/06/02 12:08:20;;;;;;;1.82;1.10;;;;;;;24.39;26.72;99510.33;1651742;84;21616;-60
2021/06/02 12:10:51;;;;;;;7.37;1.60;;;;;;;24.37;26.48;99514.67;1652043;84;20963;-62
2021/06/02 12:13:28;;;;;;;1.87;1.30;;;;;;;24.29;26.67;99521.94;1656329;84;21041;-61
2021/06/02 12:16:08;;;;;;;2.25;1.42;;;;;;;24.22;26.42;99510.44;1655173;84;21944;-62
2021/06/02 12:18:45;;;;;;;4.12;1.37;;;;;;;24.16;25.97;99510.66;1651820;84;21509;-59
2021/06/02 12:21:27;;;;;;;4.83;1.20;;;;;;;24.12;26.21;99500.01;1653981;84;20975;-61
2021/06/02 12:24:03;;;;;;;3.55;1.00;;;;;;;24.11;26.56;99504.65;1655602;84;21050;-61
2021/06/02 12:26:39;;;;;;;2.60;1.22;;;;;;;24.17;26.60;99502.23;1652170;84;21808;-61